Terminal Aerodrome Forecast
Issued by NWS

Home | Current Version | Previous Version | Text Only | Print | Product List | Glossary On
Versions: 1 2 3 4 5 6 7 8 9 10 11 12 13 14 15
000
FTUS44 KLZK 271700 RRA
TAFHRO
TAF
KHRO 271749Z 2718/2818 32008KT 6SM -DZ BR BKN012 OVC020
     FM280100 32005KT 4SM -RASN OVC007
     FM280300 33005KT 5SM BR BKN007 OVC015
     FM281300 34005KT P6SM SCT020 BKN070=

USA.gov is the U.S. government's official web portal to all federal, state and local government web resources and services.